createdAt,value
2022-12-08T00:01:42.383Z,12.90
2022-12-08T00:06:04.252Z,11.60
2022-12-08T00:10:25.235Z,11.87
2022-12-08T00:14:34.043Z,11.43
2022-12-08T00:18:35.866Z,11.00
2022-12-08T00:22:37.539Z,11.80
2022-12-08T00:26:39.329Z,11.60
2022-12-08T00:30:42.030Z,10.80
2022-12-08T00:34:43.766Z,10.43
2022-12-08T00:38:47.208Z,10.37
2022-12-08T00:42:48.903Z,10.70
2022-12-08T00:46:50.590Z,10.60
2022-12-08T00:50:52.275Z,11.23
2022-12-08T00:54:53.932Z,14.53
2022-12-08T00:58:55.799Z,11.57
2022-12-08T01:02:57.523Z,11.63
2022-12-08T01:06:59.220Z,11.30
2022-12-08T01:11:10.645Z,11.27
2022-12-08T01:15:12.375Z,10.63
2022-12-08T01:19:16.478Z,11.40
2022-12-08T01:23:18.216Z,9.90
2022-12-08T01:27:20.037Z,10.70
2022-12-08T01:31:22.655Z,10.80
2022-12-08T01:35:24.434Z,10.77
2022-12-08T01:39:26.500Z,9.47
2022-12-08T01:43:54.274Z,10.10
2022-12-08T01:48:04.480Z,9.03
2022-12-08T01:52:16.547Z,9.80
2022-12-08T01:56:28.255Z,9.53
2022-12-08T02:00:29.967Z,8.90
2022-12-08T02:04:31.648Z,8.30
2022-12-08T02:08:34.786Z,8.43
2022-12-08T02:12:36.511Z,7.70
2022-12-08T02:16:53.318Z,7.57
2022-12-08T02:21:36.905Z,8.07
2022-12-08T02:26:05.827Z,7.27
2022-12-08T02:30:38.170Z,7.40
2022-12-08T02:34:51.441Z,7.53
2022-12-08T02:39:02.983Z,7.53
2022-12-08T02:43:23.339Z,7.20
2022-12-08T02:47:27.609Z,7.67
2022-12-08T02:51:29.354Z,8.03
2022-12-08T02:55:56.566Z,8.50
2022-12-08T03:00:10.292Z,8.60
2022-12-08T03:04:50.240Z,9.50
2022-12-08T03:08:58.112Z,8.80
2022-12-08T03:13:23.004Z,8.47
2022-12-08T03:17:28.586Z,7.97
2022-12-08T03:21:32.320Z,8.73
2022-12-08T03:25:39.680Z,8.70
2022-12-08T03:29:41.732Z,8.50
2022-12-08T03:33:49.435Z,7.70
2022-12-08T03:37:51.256Z,7.00
2022-12-08T03:41:53.025Z,7.43
2022-12-08T03:45:54.732Z,8.03
2022-12-08T03:49:56.624Z,8.03
2022-12-08T03:53:58.409Z,7.83
2022-12-08T03:58:00.095Z,8.03
2022-12-08T04:02:01.905Z,7.77
2022-12-08T04:06:03.707Z,8.07
2022-12-08T04:10:06.293Z,8.03
2022-12-08T04:14:08.241Z,9.37
2022-12-08T04:18:09.981Z,7.33
2022-12-08T04:22:11.656Z,8.13
2022-12-08T04:26:13.610Z,7.67
2022-12-08T04:30:15.330Z,7.13
2022-12-08T04:34:17.007Z,6.50
2022-12-08T04:38:18.705Z,7.30
2022-12-08T04:42:20.328Z,7.03
2022-12-08T04:46:21.991Z,9.80
2022-12-08T04:50:23.656Z,7.70
2022-12-08T04:54:25.349Z,8.20
2022-12-08T04:58:27.063Z,9.27
2022-12-08T05:02:28.776Z,7.70
2022-12-08T05:06:30.458Z,14.30
2022-12-08T05:10:32.652Z,14.13
2022-12-08T05:14:34.276Z,12.03
2022-12-08T05:18:36.340Z,9.87
2022-12-08T05:22:37.993Z,9.20
2022-12-08T05:26:39.852Z,8.50
2022-12-08T05:30:41.628Z,8.87
2022-12-08T05:34:43.323Z,8.93
2022-12-08T05:38:45.623Z,9.00
2022-12-08T05:42:47.248Z,10.17
2022-12-08T05:46:49.025Z,12.23
2022-12-08T05:50:51.462Z,13.80
2022-12-08T05:54:53.211Z,11.93
2022-12-08T05:58:54.948Z,11.73
2022-12-08T06:02:56.649Z,11.33
2022-12-08T06:06:58.506Z,11.90
2022-12-08T06:11:00.222Z,11.83
2022-12-08T06:15:01.889Z,10.90
2022-12-08T06:19:03.522Z,11.17
2022-12-08T06:23:05.123Z,10.33
2022-12-08T06:27:06.797Z,11.63
2022-12-08T06:31:09.964Z,11.00
2022-12-08T06:35:11.615Z,10.07
2022-12-08T06:39:13.273Z,11.57
2022-12-08T06:43:14.871Z,11.47
2022-12-08T06:47:16.503Z,11.77
2022-12-08T06:51:20.652Z,11.17
2022-12-08T06:55:50.741Z,10.57
2022-12-08T06:59:44.949Z,11.03
2022-12-08T07:03:47.681Z,13.03
2022-12-08T07:07:49.534Z,24.40
2022-12-08T07:11:51.390Z,32.57
2022-12-08T07:15:53.061Z,21.93
2022-12-08T07:19:54.676Z,16.83
2022-12-08T07:23:58.058Z,16.37
2022-12-08T07:27:59.821Z,16.87
2022-12-08T07:32:01.564Z,16.60
2022-12-08T07:36:06.452Z,17.63
2022-12-08T07:40:09.125Z,18.47
2022-12-08T07:44:11.400Z,21.03
2022-12-08T07:48:13.308Z,19.97
2022-12-08T07:52:15.294Z,16.57
2022-12-08T07:56:17.418Z,18.00
2022-12-08T08:00:19.830Z,21.50
2022-12-08T08:04:21.582Z,20.00
2022-12-08T08:08:23.293Z,20.13
2022-12-08T08:12:32.914Z,19.53
2022-12-08T08:16:38.313Z,21.17
2022-12-08T08:20:40.869Z,20.97
2022-12-08T08:24:45.034Z,21.63
2022-12-08T08:28:48.186Z,20.20
2022-12-08T08:32:50.174Z,19.37
2022-12-08T08:36:51.896Z,15.83
2022-12-08T08:40:53.721Z,15.03
2022-12-08T08:44:55.352Z,14.83
2022-12-08T08:48:57.277Z,13.50
2022-12-08T08:52:58.978Z,14.47
2022-12-08T08:57:01.648Z,14.37
2022-12-08T09:01:03.502Z,16.90
2022-12-08T09:05:06.659Z,20.63
2022-12-08T09:09:08.532Z,16.83
2022-12-08T09:13:10.292Z,16.17
2022-12-08T09:17:11.953Z,14.30
2022-12-08T09:21:16.701Z,13.77
2022-12-08T09:25:18.378Z,16.93
2022-12-08T09:29:20.202Z,18.03
2022-12-08T09:33:21.869Z,23.10
2022-12-08T09:37:23.561Z,19.77
2022-12-08T09:41:38.912Z,18.63
2022-12-08T09:45:42.509Z,19.43
2022-12-08T09:49:52.511Z,19.10
2022-12-08T09:54:15.658Z,24.30
2022-12-08T09:58:38.326Z,25.53
2022-12-08T10:02:40.146Z,19.37
2022-12-08T10:06:53.161Z,16.30
2022-12-08T10:10:59.830Z,15.83
2022-12-08T10:15:01.604Z,14.57
2022-12-08T10:19:22.440Z,14.20
2022-12-08T10:23:39.442Z,14.00
2022-12-08T10:27:41.207Z,14.37
2022-12-08T10:31:43.373Z,17.97
2022-12-08T10:35:54.914Z,14.80
2022-12-08T10:40:01.465Z,15.37
2022-12-08T10:44:03.270Z,15.90
2022-12-08T10:48:16.411Z,14.07
2022-12-08T10:52:24.814Z,13.67
2022-12-08T10:56:28.952Z,13.53
2022-12-08T11:00:30.777Z,13.13
2022-12-08T11:04:38.387Z,13.10
2022-12-08T11:08:50.414Z,15.13
2022-12-08T11:12:52.060Z,27.33
2022-12-08T11:16:56.945Z,15.10
2022-12-08T11:21:17.203Z,16.20
2022-12-08T11:25:27.615Z,14.37
2022-12-08T11:29:32.188Z,14.30
2022-12-08T11:33:34.978Z,12.63
2022-12-08T11:37:40.582Z,18.10
2022-12-08T11:41:44.163Z,10.20
2022-12-08T11:45:49.887Z,12.17
2022-12-08T11:49:59.247Z,14.03
2022-12-08T11:54:34.263Z,11.10
2022-12-08T11:58:44.416Z,9.07
2022-12-08T12:02:53.157Z,19.40
2022-12-08T12:07:25.869Z,10.23
2022-12-08T12:12:15.712Z,12.50
2022-12-08T12:16:17.363Z,8.63
2022-12-08T12:20:37.726Z,9.20
2022-12-08T12:24:40.026Z,8.97
2022-12-08T12:28:49.639Z,10.10
2022-12-08T12:33:00.871Z,9.50
2022-12-08T12:37:16.476Z,8.77
2022-12-08T12:41:27.836Z,8.73
2022-12-08T12:45:34.284Z,9.03
2022-12-08T12:49:38.981Z,9.53
2022-12-08T12:53:40.615Z,9.47
2022-12-08T12:57:54.487Z,8.40
2022-12-08T13:01:56.683Z,9.37
2022-12-08T13:05:59.576Z,8.23
2022-12-08T13:10:16.488Z,8.40
2022-12-08T13:14:46.727Z,7.03
2022-12-08T13:18:56.582Z,7.70
2022-12-08T13:23:11.998Z,7.20
2022-12-08T13:27:13.740Z,10.83
2022-12-08T13:31:52.008Z,10.07
2022-12-08T13:36:17.365Z,9.67
2022-12-08T13:40:24.893Z,8.87
2022-12-08T13:57:50.896Z,9.93
2022-12-08T14:01:52.784Z,10.63
2022-12-08T14:06:12.896Z,9.70
2022-12-08T14:10:25.836Z,10.53
2022-12-08T14:15:00.395Z,10.50
2022-12-08T14:18:51.479Z,10.93
2022-12-08T14:22:54.226Z,10.27
2022-12-08T14:27:01.780Z,11.03
2022-12-08T14:31:04.340Z,12.17
2022-12-08T14:35:08.812Z,14.43
2022-12-08T14:39:10.978Z,13.20
2022-12-08T14:43:16.537Z,10.40
2022-12-08T14:47:21.085Z,9.80
2022-12-08T14:51:31.412Z,9.70
2022-12-08T14:55:37.322Z,10.80
2022-12-08T14:59:40.260Z,11.30
2022-12-08T15:03:48.992Z,10.43
2022-12-08T15:07:58.770Z,10.90
2022-12-08T15:12:07.628Z,10.87
2022-12-08T15:16:41.556Z,13.23
2022-12-08T15:20:53.571Z,13.00
2022-12-08T15:24:56.293Z,12.73
2022-12-08T15:28:57.979Z,11.60
2022-12-08T15:32:59.629Z,11.90
2022-12-08T15:37:04.384Z,12.53
2022-12-08T15:41:10.120Z,13.43
2022-12-08T15:45:16.210Z,14.57
2022-12-08T15:49:23.486Z,14.47
2022-12-08T15:53:25.218Z,15.00
2022-12-08T16:01:53.229Z,17.60
2022-12-08T16:06:39.037Z,24.77
2022-12-08T16:10:24.617Z,25.23
2022-12-08T16:18:49.563Z,20.67
2022-12-08T16:22:56.810Z,16.90
2022-12-08T16:31:45.854Z,16.30
2022-12-08T16:35:47.765Z,18.17
2022-12-08T16:39:50.781Z,18.70
2022-12-08T16:43:53.016Z,15.97
2022-12-08T16:47:55.749Z,17.67
2022-12-08T16:51:57.374Z,19.17
2022-12-08T16:55:59.031Z,18.63
2022-12-08T17:00:00.697Z,16.80
2022-12-08T17:08:24.322Z,24.83
2022-12-08T17:12:25.978Z,21.30
2022-12-08T17:16:27.699Z,22.53
2022-12-08T17:20:29.443Z,16.20
2022-12-08T17:24:31.564Z,17.37
2022-12-08T17:28:59.013Z,16.33
2022-12-08T17:32:55.053Z,16.57
2022-12-08T17:36:56.773Z,14.50
2022-12-08T17:41:03.308Z,14.10
2022-12-08T17:45:07.082Z,14.63
2022-12-08T17:49:10.803Z,22.87
2022-12-08T17:53:12.635Z,23.53
2022-12-08T17:57:14.294Z,20.90
2022-12-08T18:01:15.974Z,18.20
2022-12-08T18:05:17.745Z,21.17
2022-12-08T18:09:19.582Z,25.13
2022-12-08T18:13:21.286Z,19.93
2022-12-08T18:17:22.943Z,22.90
2022-12-08T18:21:24.611Z,19.20
2022-12-08T18:25:26.422Z,21.70
2022-12-08T18:29:28.073Z,22.60
2022-12-08T18:33:29.695Z,20.00
2022-12-08T18:37:31.346Z,20.13
2022-12-08T18:41:33.141Z,18.83
2022-12-08T18:45:36.804Z,18.90
2022-12-08T18:49:38.528Z,20.93
2022-12-08T18:53:40.825Z,21.50
2022-12-08T18:57:43.390Z,17.03
2022-12-08T19:01:45.113Z,16.23
2022-12-08T19:05:46.862Z,15.87
2022-12-08T19:09:48.512Z,20.00
2022-12-08T19:13:50.913Z,27.90
2022-12-08T19:17:52.547Z,20.73
2022-12-08T19:21:54.348Z,24.37
2022-12-08T19:25:56.054Z,37.40
2022-12-08T19:29:57.797Z,29.50
2022-12-08T19:33:59.470Z,25.10
2022-12-08T19:38:01.128Z,22.70
2022-12-08T19:42:22.100Z,20.80
2022-12-08T19:46:25.175Z,20.57
2022-12-08T19:50:36.224Z,23.10
2022-12-08T19:54:38.059Z,21.10
2022-12-08T19:58:39.710Z,19.43
2022-12-08T20:02:41.608Z,18.10
2022-12-08T20:06:44.387Z,19.07
2022-12-08T20:10:46.762Z,21.63
2022-12-08T20:14:48.466Z,22.27
2022-12-08T20:18:50.795Z,8.40
2022-12-08T20:22:52.431Z,6.00
2022-12-08T20:26:54.210Z,7.70
2022-12-08T20:30:56.011Z,12.33
2022-12-08T20:34:57.952Z,12.93
2022-12-08T20:38:59.619Z,20.50
2022-12-08T20:43:01.590Z,20.63
2022-12-08T20:47:03.330Z,18.47
2022-12-08T20:51:05.376Z,13.87
2022-12-08T20:55:08.298Z,15.50
2022-12-08T20:59:17.874Z,14.17
2022-12-08T21:03:19.992Z,9.80
2022-12-08T21:07:21.897Z,9.97
2022-12-08T21:11:23.677Z,12.40
2022-12-08T21:15:25.478Z,7.40
2022-12-08T21:19:27.472Z,7.80
2022-12-08T21:23:29.251Z,7.47
2022-12-08T21:27:31.120Z,7.43
2022-12-08T21:31:33.634Z,8.77
2022-12-08T21:35:35.437Z,10.07
2022-12-08T21:39:37.382Z,10.50
2022-12-08T21:43:39.766Z,9.93
2022-12-08T21:47:42.224Z,10.23
2022-12-08T21:51:44.157Z,9.57
2022-12-08T21:55:46.205Z,8.83
2022-12-08T21:59:47.905Z,7.83
2022-12-08T22:03:50.094Z,9.37
2022-12-08T22:07:52.009Z,12.80
2022-12-08T22:11:53.735Z,9.87
2022-12-08T22:16:00.127Z,9.43
2022-12-08T22:20:02.642Z,7.63
2022-12-08T22:24:04.583Z,7.33
2022-12-08T22:28:06.455Z,9.70
2022-12-08T22:32:08.155Z,10.50
2022-12-08T22:36:36.382Z,10.37
2022-12-08T22:40:40.741Z,9.17
2022-12-08T22:44:42.414Z,8.10
2022-12-08T22:48:44.971Z,8.53
2022-12-08T22:52:46.616Z,8.43
2022-12-08T22:56:48.249Z,9.23
2022-12-08T23:00:50.517Z,8.20
2022-12-08T23:04:56.260Z,8.70
2022-12-08T23:08:59.257Z,8.33
2022-12-08T23:13:03.918Z,9.27
2022-12-08T23:17:06.125Z,8.37
2022-12-08T23:21:12.006Z,9.73
2022-12-08T23:25:14.414Z,8.43
2022-12-08T23:29:16.349Z,7.47
2022-12-08T23:33:18.277Z,7.50
2022-12-08T23:37:20.087Z,9.23
2022-12-08T23:41:22.508Z,7.77
2022-12-08T23:45:24.317Z,10.70
2022-12-08T23:49:26.209Z,6.93
2022-12-08T23:53:33.319Z,7.53
2022-12-08T23:57:36.314Z,8.00
